LFLYLFLC

Guest
Details From LFLY - Lyon Bron
To LFLC - Clermont-Ferrand_Auvergne
Flight Number -
Tags generated
Created
Modified
Stats Distance 74 nm / 138 km
Max Altitude 100 ft / 30 m
Waypoints 3
Social Downloads 0
Likes 0
Share VATSIM

Download

Looking for another format? Having issues loading an existing format? Contact us
Advertisement - Login to hide

Notes

Basic altitude profile: - Ascent Rate: 2500ft/min - Ascent Speed: 250kts - Cruise Altitude: 35000ft - Cruise Speed: 420kts - Descent Rate: 1500ft/min - Descent Speed: 250kts Options: - Use NATs: yes - Use PACOTS: yes - Use low airways: no - Use high airways: yes

Route

LFLY CFA LFLC

ID Type Via Altitude Latitude Longitude Leg Dist Tot Dist Heading (true) Name
O LFLY APT - 0 ft / 0 m 45.72717˚ 4.94427˚ - 0 nm - Lyon Bron
CFA VOR - 100 ft / 30 m 45.78747˚ 3.19219˚ 73 nm 73 nm 273° / 272° CLERMONT FERRAND AUVERGNE VOR-
O LFLC APT - 0 ft / 0 m 45.78671˚ 3.16997˚ 0 nm 74 nm 267° / 267° Clermont-Ferrand_Auvergne

Altitude Profile

Advertisement - Login to hide

LFLY

Details ICAO LFLY (LYN)
Name Lyon Bron
Region France
Timezone Europe/Paris (UTC+1.0)
Stats Elevation 659 ft / 201 m (AMSL)
Location 45.727171° 4.944274°
Runways 1
Magnetic Variation 1.451° E

METAR

LFLY 171930Z AUTO 00000KT 6000 NSC M00/M01 Q1029 TEMPO 2000 BR BKN003

Decode

TAF

TAF LFLY 171700Z 1718/1818 VRB02KT 9999 BKN040 PROB30 TEMPO 1721/1803 2000 BR BKN003 BECMG 1803/1805 18006KT 4000 -SN BKN008 OVC030 BECMG 1805/1807 1200 SN BKN004 OVC015 PROB40 TEMPO 1807/1809 0500 +SN BECMG 1809/1811 8000 -RA BKN008 OVC030 FM181400 36012KT 9999 BKN010

Decode

Departure Runways

ID Width Length Bearing (true) Bearing (mag) Surface Threshold Offset Overrun Length
16 148 ft / 45 m 5,972 ft / 1,820 m 163.44° 161.99° Asphalt 984 ft / 300 m 0 ft / 0 m
34 148 ft / 45 m 5,972 ft / 1,820 m 343.44° 341.99° Asphalt 984 ft / 300 m 0 ft / 0 m

LFLC

Details ICAO LFLC (CFE)
Name Clermont-Ferrand_Auvergne
Region France
Timezone Europe/Paris (UTC+1.0)
Stats Elevation 1,089 ft / 332 m (AMSL)
Location 45.786712° 3.169967°
Runways 1
Magnetic Variation 0.981° E

METAR

LFLC 171930Z AUTO 00000KT 9999 FEW026 SCT033 OVC042 02/01 Q1029 NOSIG

Decode

TAF

TAF AMD LFLC 171808Z 1718/1815 18005KT 9999 FEW027 BKN040 BECMG 1804/1806 BKN015 OVC036 TEMPO 1806/1809 -RA BECMG 1809/1812 28010KT BECMG 1813/1815 RA BKN010

Decode

Destination Runways

ID Width Length Bearing (true) Bearing (mag) Surface Threshold Offset Overrun Length
08 148 ft / 45 m 9,878 ft / 3,011 m 81.95° 80.97° Asphalt 0 ft / 0 m 0 ft / 0 m
26 148 ft / 45 m 9,878 ft / 3,011 m 261.98° 261.00° Asphalt 476 ft / 145 m 0 ft / 0 m

Approach Navaids

Runway Type Ident Frequency Range Bearing (true) Bearing (mag) Slope Elevation
26 Localiser CF 111.10 MHz 27 nm / 50 km 261.98° 261.00° - 1,089 ft / 332 m (AMSL)
26 Glidescope CF 111.10 MHz 27 nm / 50 km 261.98° 261.00° 3.00° 1,089 ft / 332 m (AMSL)
26 DME CF 111.10 MHz 27 nm / 50 km - - - 1,089 ft / 332 m (AMSL)

Popular Alternatives